Time;durP1;ratioP1;P1;durP2;ratioP2;P2;SDS_P1;SDS_P2;PMS_P1;PMS_P2;Temp;Humidity;BMP_temperature;BMP_pressure;BME280_temperature;BME280_humidity;BME280_pressure;Samples;Min_cycle;Max_cycle;Signal;HPM_P1;HPM_P2
2021/05/20 00:00:10;;;;;;;2.65;0.80;;;;;;;22.77;34.46;100572.94;144994;567;5004;-76
2021/05/20 00:02:37;;;;;;;4.72;0.98;;;;;;;22.85;34.95;100572.78;144994;564;5004;-77
2021/05/20 00:05:05;;;;;;;3.25;0.90;;;;;;;22.89;34.34;100576.22;144994;590;5004;-78
2021/05/20 00:07:33;;;;;;;1.90;0.77;;;;;;;22.79;33.99;100575.56;144994;603;5004;-76
2021/05/20 00:10:00;;;;;;;3.62;1.20;;;;;;;22.92;34.95;100582.31;144994;583;5004;-76
2021/05/20 00:12:39;;;;;;;2.25;0.70;;;;;;;22.98;34.77;100581.28;144994;592;5004;-74
2021/05/20 00:15:09;;;;;;;4.07;0.90;;;;;;;22.88;34.04;100588.59;144994;567;5004;-78
2021/05/20 00:17:44;;;;;;;2.72;0.57;;;;;;;22.89;34.39;100581.50;144994;657;5004;-77
2021/05/20 00:20:16;;;;;;;3.03;0.75;;;;;;;22.85;34.04;100580.72;144994;590;5004;-78
2021/05/20 00:22:43;;;;;;;2.30;0.77;;;;;;;22.89;35.11;100584.16;144994;585;5004;-78
2021/05/20 00:25:12;;;;;;;3.05;0.85;;;;;;;22.85;33.91;100578.06;144994;622;5004;-77
2021/05/20 00:27:39;;;;;;;2.58;1.05;;;;;;;23.06;35.32;100575.81;144994;584;5004;-77
2021/05/20 00:30:10;;;;;;;3.65;0.93;;;;;;;23.14;35.20;100569.44;144994;633;5004;-77
2021/05/20 00:32:38;;;;;;;2.65;0.90;;;;;;;23.28;34.78;100558.50;144994;623;5004;-77
2021/05/20 00:35:06;;;;;;;8.02;3.78;;;;;;;23.43;35.15;100551.97;144994;616;5004;-78
2021/05/20 00:37:33;;;;;;;4.53;0.90;;;;;;;23.43;34.52;100551.06;144994;569;5004;-79
2021/05/20 00:40:25;;;;;;;1.75;0.70;;;;;;;23.50;34.12;100555.31;144994;613;5004;-78
2021/05/20 00:42:53;;;;;;;6.00;1.48;;;;;;;23.43;35.35;100548.44;144994;574;5002;-77
2021/05/20 00:45:24;;;;;;;6.12;1.52;;;;;;;23.48;34.82;100547.41;144994;565;5002;-77
2021/05/20 00:47:52;;;;;;;3.58;0.90;;;;;;;23.46;34.89;100556.31;144994;599;5002;-79
2021/05/20 00:50:19;;;;;;;3.95;0.82;;;;;;;23.41;34.23;100559.06;144994;594;5002;-78
2021/05/20 00:52:54;;;;;;;4.93;0.80;;;;;;;23.51;35.29;100570.28;144994;605;5002;-79
2021/05/20 00:55:23;;;;;;;4.25;0.80;;;;;;;23.47;34.00;100566.84;144994;573;5002;-76
2021/05/20 00:57:52;;;;;;;3.00;1.30;;;;;;;23.53;34.78;100569.34;144994;623;5002;-78
2021/05/20 01:00:24;;;;;;;3.97;1.15;;;;;;;23.46;34.82;100574.84;144994;620;5002;-79
2021/05/20 01:02:50;;;;;;;4.35;1.00;;;;;;;23.38;35.07;100572.37;144994;640;5002;-78
2021/05/20 01:05:18;;;;;;;2.83;0.70;;;;;;;23.26;34.33;100585.97;144994;575;5002;-77
2021/05/20 01:07:46;;;;;;;4.35;0.65;;;;;;;23.06;34.68;100586.41;144994;593;5002;-77
2021/05/20 01:10:25;;;;;;;2.30;0.70;;;;;;;23.04;35.63;100590.88;144994;589;5002;-78
2021/05/20 01:12:53;;;;;;;2.62;0.75;;;;;;;23.10;35.26;100582.81;144994;663;5002;-78
2021/05/20 01:15:45;;;;;;;;;;;;;;;;;;;;;
2021/05/20 01:18:16;;;;;;;3.92;1.42;;;;;;;23.05;35.53;100580.25;144994;575;5004;-74
2021/05/20 01:20:44;;;;;;;5.22;0.85;;;;;;;23.15;35.88;100567.69;144994;567;5004;-77
2021/05/20 01:23:20;;;;;;;4.05;0.90;;;;;;;23.18;35.79;100549.06;144994;597;5004;-80
2021/05/20 01:25:50;;;;;;;1.70;0.70;;;;;;;23.12;34.65;100555.37;144994;635;5004;-78
2021/05/20 01:28:20;;;;;;;2.95;0.80;;;;;;;22.98;35.43;100562.75;144994;588;5004;-78
2021/05/20 01:30:47;;;;;;;2.17;0.85;;;;;;;22.94;36.10;100564.62;144994;563;5004;-77
2021/05/20 01:33:15;;;;;;;1.55;0.70;;;;;;;22.88;35.87;100556.81;144994;614;5004;-78
2021/05/20 01:35:42;;;;;;;3.42;0.70;;;;;;;22.76;35.53;100550.03;144994;585;5004;-76
2021/05/20 01:41:12;;;;;;;2.33;0.70;;;;;;;22.71;35.79;100557.22;144994;591;5002;-76
2021/05/20 01:43:41;;;;;;;4.00;0.95;;;;;;;22.69;36.08;100553.72;144994;588;5002;-78
2021/05/20 01:46:09;;;;;;;3.42;1.00;;;;;;;22.73;35.95;100551.88;144993;592;5002;-78
2021/05/20 01:48:53;;;;;;;4.37;0.98;;;;;;;22.77;35.92;100545.63;144994;602;5002;-77
2021/05/20 01:51:21;;;;;;;2.60;1.02;;;;;;;22.81;35.93;100532.28;144994;569;5002;-77
2021/05/20 01:53:53;;;;;;;1.83;0.80;;;;;;;22.73;35.99;100536.00;144994;597;5002;-76
2021/05/20 01:56:21;;;;;;;1.92;0.70;;;;;;;22.66;36.00;100537.06;144994;656;5002;-77
2021/05/20 01:58:49;;;;;;;2.33;1.08;;;;;;;22.59;35.91;100531.91;144994;633;5002;-79
2021/05/20 02:01:16;;;;;;;4.90;1.20;;;;;;;22.69;36.11;100532.56;144994;577;5002;-77
2021/05/20 02:03:43;;;;;;;3.85;0.90;;;;;;;22.80;35.87;100530.53;144994;565;5002;-79
2021/05/20 02:06:10;;;;;;;3.37;0.73;;;;;;;22.84;35.75;100520.75;144994;569;4566;-77
2021/05/20 02:08:38;;;;;;;2.62;0.90;;;;;;;22.91;36.29;100524.13;144994;590;4569;-78
2021/05/20 02:11:07;;;;;;;2.47;0.90;;;;;;;22.96;35.70;100520.44;144994;585;4572;-78
2021/05/20 02:13:34;;;;;;;1.90;0.80;;;;;;;22.98;36.23;100523.06;144992;594;6002;-78
2021/05/20 02:16:00;;;;;;;1.92;0.90;;;;;;;22.95;35.94;100524.00;144992;589;6002;-78
2021/05/20 02:18:27;;;;;;;8.73;1.55;;;;;;;22.89;35.29;100528.56;144992;646;6002;-77
2021/05/20 02:20:54;;;;;;;3.80;1.17;;;;;;;22.77;35.86;100530.59;144992;574;6002;-77
2021/05/20 02:23:21;;;;;;;4.45;1.00;;;;;;;22.77;36.09;100530.59;144992;594;6002;-77
2021/05/20 02:25:48;;;;;;;4.30;1.08;;;;;;;22.80;36.24;100537.63;144992;581;6002;-78
2021/05/20 02:28:15;;;;;;;4.03;0.98;;;;;;;22.76;35.79;100541.22;144992;593;6002;-78
2021/05/20 02:30:42;;;;;;;3.87;0.95;;;;;;;22.78;36.15;100537.66;144992;642;6002;-76
2021/05/20 02:33:09;;;;;;;9.15;1.08;;;;;;;22.79;36.57;100544.66;144992;583;6002;-76
2021/05/20 02:35:36;;;;;;;8.45;1.10;;;;;;;22.79;36.30;100546.44;144992;569;6002;-77
2021/05/20 02:38:03;;;;;;;4.60;0.98;;;;;;;22.63;35.72;100536.22;144992;594;6002;-78
2021/05/20 02:40:30;;;;;;;6.53;1.05;;;;;;;22.47;36.37;100526.91;144992;576;6002;-77
2021/05/20 02:42:56;;;;;;;5.43;1.25;;;;;;;22.41;36.84;100533.22;144992;588;6002;-78
2021/05/20 02:45:24;;;;;;;4.78;1.35;;;;;;;22.39;36.78;100531.50;144992;570;6002;-77
2021/05/20 02:47:52;;;;;;;4.40;1.20;;;;;;;22.27;37.02;100538.75;144992;581;6002;-77
2021/05/20 02:50:21;;;;;;;4.28;1.30;;;;;;;22.21;37.16;100536.25;144992;576;6002;-78
2021/05/20 02:52:48;;;;;;;3.10;1.50;;;;;;;22.27;37.00;100529.94;144992;565;6002;-77
2021/05/20 02:55:17;;;;;;;5.57;1.10;;;;;;;22.29;36.98;100525.50;144992;622;6002;-77
2021/05/20 02:57:54;;;;;;;3.05;1.12;;;;;;;22.30;36.70;100523.75;144992;622;6002;-77
2021/05/20 03:00:26;;;;;;;4.10;0.90;;;;;;;22.32;36.26;100525.47;144992;574;6002;-77
2021/05/20 03:02:53;;;;;;;5.85;1.00;;;;;;;22.37;36.75;100526.25;144992;610;6002;-77
2021/05/20 03:05:19;;;;;;;3.00;0.95;;;;;;;22.38;37.25;100522.69;144992;621;6002;-77
2021/05/20 03:07:47;;;;;;;3.28;0.90;;;;;;;22.31;37.03;100529.00;144992;582;6002;-77
2021/05/20 03:10:14;;;;;;;2.20;0.98;;;;;;;22.34;37.30;100531.59;144992;612;6002;-77
2021/05/20 03:12:41;;;;;;;6.07;1.30;;;;;;;22.39;37.17;100536.78;144992;635;6002;-77
2021/05/20 03:15:10;;;;;;;3.37;0.98;;;;;;;22.40;37.49;100538.53;144992;632;6003;-77
2021/05/20 03:17:37;;;;;;;6.03;1.08;;;;;;;22.36;36.95;100539.50;144992;635;6002;-77
2021/05/20 03:20:05;;;;;;;8.40;1.50;;;;;;;22.34;37.37;100534.25;144992;606;6002;-76
2021/05/20 03:22:32;;;;;;;5.53;1.12;;;;;;;22.36;37.10;100529.78;144992;686;6002;-78
2021/05/20 03:24:59;;;;;;;5.95;1.25;;;;;;;22.38;37.41;100533.28;144992;645;6002;-77
2021/05/20 03:27:26;;;;;;;4.05;1.02;;;;;;;22.36;36.49;100537.72;144992;615;6002;-77
2021/05/20 03:29:53;;;;;;;6.78;1.50;;;;;;;22.28;37.52;100527.25;144992;621;6002;-78
2021/05/20 03:32:19;;;;;;;5.90;1.20;;;;;;;22.25;37.68;100532.63;144992;569;6002;-77
2021/05/20 03:34:46;;;;;;;7.43;1.50;;;;;;;22.26;36.98;100547.59;144992;637;6002;-78
2021/05/20 03:37:12;;;;;;;7.32;1.90;;;;;;;22.27;37.26;100545.81;144992;641;6002;-77
2021/05/20 03:39:40;;;;;;;5.43;1.35;;;;;;;22.24;37.59;100552.03;144992;572;6002;-78
2021/05/20 03:42:07;;;;;;;6.10;1.25;;;;;;;22.30;37.35;100555.50;144992;596;6002;-78
2021/05/20 03:44:33;;;;;;;4.15;1.20;;;;;;;22.30;37.48;100561.63;144992;589;6002;-78
2021/05/20 03:47:00;;;;;;;10.23;1.87;;;;;;;22.31;37.40;100563.38;144992;585;6002;-77
2021/05/20 03:49:26;;;;;;;7.00;1.60;;;;;;;22.32;37.46;100573.06;144992;580;6002;-77
2021/05/20 03:51:53;;;;;;;8.18;1.90;;;;;;;22.36;37.34;100584.44;144992;599;6002;-77
2021/05/20 03:54:20;;;;;;;5.65;1.55;;;;;;;22.40;37.49;100578.19;144991;645;6002;-77
2021/05/20 03:56:47;;;;;;;5.53;1.83;;;;;;;22.45;37.03;100574.53;144992;656;6002;-77
2021/05/20 03:59:14;;;;;;;3.30;1.30;;;;;;;22.50;36.67;100578.88;144992;581;6002;-78
2021/05/20 04:01:40;;;;;;;3.70;1.30;;;;;;;22.53;37.71;100581.44;144992;655;6002;-78
2021/05/20 04:04:07;;;;;;;4.03;1.50;;;;;;;22.47;37.34;100566.56;144992;600;6002;-78
2021/05/20 04:06:34;;;;;;;6.45;1.70;;;;;;;22.48;37.98;100565.69;144992;563;6002;-77
2021/05/20 04:09:01;;;;;;;4.28;1.40;;;;;;;22.52;37.43;100559.41;144992;581;6002;-78
2021/05/20 04:11:29;;;;;;;3.15;1.17;;;;;;;22.50;37.30;100561.22;144992;580;6002;-78
2021/05/20 04:13:55;;;;;;;3.35;1.30;;;;;;;22.47;37.20;100563.94;144992;564;6002;-78
2021/05/20 04:16:25;;;;;;;3.90;0.90;;;;;;;22.52;37.66;100566.47;144992;621;6002;-77
2021/05/20 04:18:52;;;;;;;4.70;1.08;;;;;;;22.57;37.22;100559.31;144991;565;6002;-78
2021/05/20 04:21:19;;;;;;;5.15;1.25;;;;;;;22.60;37.67;100568.03;144992;626;6002;-76
2021/05/20 04:23:47;;;;;;;5.97;1.60;;;;;;;22.66;37.65;100566.16;144992;586;6002;-77
2021/05/20 04:26:24;;;;;;;4.65;1.80;;;;;;;22.71;37.71;100564.28;144992;619;6002;-80
2021/05/20 04:28:50;;;;;;;6.15;1.60;;;;;;;22.76;37.67;100563.25;144992;585;6002;-77
2021/05/20 04:31:18;;;;;;;5.10;2.00;;;;;;;22.83;37.15;100562.22;144992;572;6002;-78
2021/05/20 04:33:45;;;;;;;4.87;2.53;;;;;;;22.88;37.64;100555.97;144992;670;6002;-78
2021/05/20 04:36:12;;;;;;;5.03;1.50;;;;;;;22.93;37.27;100560.22;144992;593;6002;-77
2021/05/20 04:38:39;;;;;;;6.55;1.70;;;;;;;22.97;37.79;100553.97;144992;611;6002;-75
2021/05/20 04:41:06;;;;;;;8.90;1.77;;;;;;;23.03;37.34;100558.22;144992;591;6002;-76
2021/05/20 04:43:33;;;;;;;7.32;1.75;;;;;;;23.07;37.21;100567.84;144992;563;6002;-74
2021/05/20 04:45:59;;;;;;;9.15;1.90;;;;;;;23.12;37.75;100576.56;144992;618;6002;-78
2021/05/20 04:48:26;;;;;;;4.10;1.65;;;;;;;23.10;37.63;100565.16;144992;593;6002;-76
2021/05/20 04:50:52;;;;;;;6.80;2.12;;;;;;;23.11;37.34;100566.88;144992;591;6002;-75
2021/05/20 04:53:19;;;;;;;5.70;1.50;;;;;;;23.13;37.84;100564.19;144992;613;6002;-76
2021/05/20 04:55:45;;;;;;;9.23;1.70;;;;;;;23.15;37.25;100567.69;144992;586;6002;-76
2021/05/20 04:58:12;;;;;;;8.35;1.60;;;;;;;23.16;37.13;100557.06;144992;563;6002;-75
2021/05/20 05:00:38;;;;;;;4.62;1.70;;;;;;;23.06;36.76;100554.63;144992;596;6002;-76
2021/05/20 05:03:05;;;;;;;5.40;1.58;;;;;;;23.05;37.05;100572.31;144992;600;6002;-75
2021/05/20 05:05:31;;;;;;;5.15;1.50;;;;;;;23.05;37.61;100559.06;144992;640;6002;-76
2021/05/20 05:07:58;;;;;;;4.87;1.62;;;;;;;23.05;37.53;100556.44;144992;655;6002;-76
2021/05/20 05:10:24;;;;;;;6.28;1.90;;;;;;;23.07;37.54;100554.59;144992;566;6002;-76
2021/05/20 05:12:51;;;;;;;5.85;1.77;;;;;;;23.08;37.71;100555.50;144992;611;6002;-76
2021/05/20 05:15:17;;;;;;;5.45;2.15;;;;;;;23.10;37.94;100557.22;144992;620;6002;-76
2021/05/20 05:17:44;;;;;;;5.72;1.70;;;;;;;23.16;37.73;100570.28;144992;611;6002;-76
2021/05/20 05:20:11;;;;;;;6.70;2.30;;;;;;;23.24;37.40;100569.22;144992;603;6002;-76
2021/05/20 05:22:38;;;;;;;6.90;2.28;;;;;;;23.28;37.76;100569.09;144992;589;6002;-77
2021/05/20 05:25:06;;;;;;;8.55;2.90;;;;;;;23.37;37.86;100578.63;144992;588;6002;-76
2021/05/20 05:27:32;;;;;;;8.55;3.45;;;;;;;23.48;37.38;100576.56;144992;585;6002;-78
2021/05/20 05:29:58;;;;;;;10.98;3.30;;;;;;;23.55;37.99;100578.12;144992;576;6002;-78
2021/05/20 05:32:25;;;;;;;6.45;2.60;;;;;;;23.50;37.88;100571.22;144992;591;6002;-77
2021/05/20 05:34:51;;;;;;;5.87;1.90;;;;;;;23.46;37.72;100567.75;144992;612;6002;-77
2021/05/20 05:37:18;;;;;;;5.18;2.17;;;;;;;23.55;37.92;100571.97;144992;570;6002;-77
2021/05/20 05:39:44;;;;;;;6.62;2.60;;;;;;;23.66;37.65;100572.53;144992;652;6002;-78
2021/05/20 05:42:11;;;;;;;10.73;3.10;;;;;;;23.78;37.80;100555.41;144992;607;6002;-76
2021/05/20 05:44:37;;;;;;;11.25;3.70;;;;;;;23.89;37.75;100563.13;144992;596;6002;-77
2021/05/20 05:47:04;;;;;;;8.05;2.90;;;;;;;23.99;37.55;100566.37;144992;659;6002;-76
2021/05/20 05:49:33;;;;;;;10.88;2.30;;;;;;;24.05;37.67;100564.44;144992;621;6016;-75
2021/05/20 05:52:06;;;;;;;6.60;2.25;;;;;;;24.17;37.94;100567.66;144992;618;6002;-76
2021/05/20 05:54:33;;;;;;;6.45;1.92;;;;;;;24.27;37.40;100567.34;144992;619;6002;-77
2021/05/20 05:57:01;;;;;;;8.60;2.15;;;;;;;24.36;37.45;100575.94;144992;569;6002;-79
2021/05/20 05:59:28;;;;;;;5.75;2.00;;;;;;;24.34;37.51;100577.75;144992;698;6002;-77
2021/05/20 06:01:57;;;;;;;4.07;1.40;;;;;;;24.33;37.52;100570.72;144992;576;6002;-79
2021/05/20 06:04:25;;;;;;;4.55;1.70;;;;;;;24.40;37.53;100572.25;144992;565;6002;-80
2021/05/20 06:06:52;;;;;;;5.12;1.55;;;;;;;24.30;35.97;100576.97;144992;642;6002;-78
2021/05/20 06:09:18;;;;;;;7.75;2.70;;;;;;;24.37;37.26;100572.34;144992;572;6002;-75
2021/05/20 06:11:45;;;;;;;7.60;2.03;;;;;;;24.42;36.91;100566.00;144992;569;6002;-76
2021/05/20 06:14:11;;;;;;;6.80;2.15;;;;;;;24.49;36.79;100566.69;144992;636;6002;-78
2021/05/20 06:16:41;;;;;;;5.82;1.83;;;;;;;24.41;36.90;100558.09;144992;593;6002;-78
2021/05/20 06:19:12;;;;;;;8.88;1.83;;;;;;;24.42;36.92;100558.03;144992;585;6002;-77
2021/05/20 06:21:38;;;;;;;5.40;1.50;;;;;;;24.53;36.86;100568.34;144992;598;6002;-75
2021/05/20 06:24:05;;;;;;;8.02;1.77;;;;;;;24.62;36.43;100575.16;144992;574;6002;-76
2021/05/20 06:26:32;;;;;;;5.57;1.52;;;;;;;24.61;35.07;100573.44;144992;589;6002;-75
2021/05/20 06:28:59;;;;;;;4.47;1.10;;;;;;;24.66;36.07;100562.66;144992;588;6002;-77
2021/05/20 06:31:26;;;;;;;4.85;1.35;;;;;;;24.73;36.32;100562.41;144992;676;6002;-78
2021/05/20 06:33:52;;;;;;;7.37;1.73;;;;;;;24.86;36.34;100565.56;144992;573;6002;-78
2021/05/20 06:36:19;;;;;;;4.87;1.62;;;;;;;24.99;36.08;100564.25;144992;577;6003;-78
2021/05/20 06:38:46;;;;;;;3.42;1.10;;;;;;;25.10;35.57;100563.03;144992;592;6002;-77
2021/05/20 06:41:12;;;;;;;2.72;1.05;;;;;;;25.08;36.04;100551.59;144992;642;6002;-76
2021/05/20 06:43:40;;;;;;;4.45;1.10;;;;;;;25.13;35.87;100558.50;144992;570;6002;-92
2021/05/20 06:46:08;;;;;;;4.35;1.17;;;;;;;25.23;36.10;100555.50;144992;570;6002;-76
2021/05/20 06:48:36;;;;;;;3.10;1.23;;;;;;;25.35;36.11;100552.47;144992;581;6002;-76
2021/05/20 06:51:06;;;;;;;4.75;1.58;;;;;;;25.38;34.67;100547.06;144992;640;6002;-77
2021/05/20 06:53:37;;;;;;;6.47;1.80;;;;;;;25.18;36.14;100547.69;144992;597;6002;-78
2021/05/20 06:56:11;;;;;;;3.80;1.23;;;;;;;25.06;37.71;100562.25;144992;658;6002;-77
2021/05/20 07:01:22;;;;;;;4.82;1.50;;;;;;;24.72;38.11;100565.13;144992;606;6004;-75
2021/05/20 07:03:48;;;;;;;6.10;1.35;;;;;;;24.62;39.08;100567.19;144992;600;6004;-74
2021/05/20 07:06:17;;;;;;;6.45;1.40;;;;;;;24.53;39.16;100560.38;144992;564;6004;-74
2021/05/20 07:08:45;;;;;;;6.32;1.52;;;;;;;24.55;39.71;100565.63;144992;636;6004;-81
2021/05/20 07:11:11;;;;;;;4.07;1.48;;;;;;;24.38;38.68;100558.19;144992;604;6004;-76
2021/05/20 07:13:38;;;;;;;3.95;1.20;;;;;;;24.47;38.19;100563.22;144992;654;6004;-76
2021/05/20 07:16:04;;;;;;;4.57;0.93;;;;;;;24.15;36.96;100556.19;144992;663;6004;-78
2021/05/20 07:18:31;;;;;;;26.17;2.00;;;;;;;24.37;37.64;100553.78;144992;573;6004;-81
2021/05/20 07:20:58;;;;;;;4.45;1.27;;;;;;;24.55;37.56;100561.19;144992;569;6004;-78
2021/05/20 07:23:24;;;;;;;8.07;1.37;;;;;;;24.63;37.30;100566.28;144992;589;6004;-79
2021/05/20 07:25:51;;;;;;;6.68;1.10;;;;;;;24.73;36.84;100548.28;144992;729;6004;-77
2021/05/20 07:28:17;;;;;;;3.60;1.12;;;;;;;24.79;35.87;100551.63;144992;619;6005;-78
2021/05/20 07:30:44;;;;;;;2.45;1.17;;;;;;;24.85;35.87;100552.31;144992;603;6004;-77
2021/05/20 07:33:12;;;;;;;6.18;1.40;;;;;;;24.87;36.07;100553.16;144992;649;6004;-78
2021/05/20 07:35:39;;;;;;;3.83;1.20;;;;;;;24.93;35.76;100564.44;144992;603;6005;-78
2021/05/20 07:38:07;;;;;;;2.37;0.85;;;;;;;25.03;36.59;100557.06;144992;585;6004;-78
2021/05/20 07:40:33;;;;;;;3.17;1.00;;;;;;;24.78;37.59;100562.28;144992;645;6013;-80
2021/05/20 07:43:00;;;;;;;4.65;1.15;;;;;;;24.78;37.07;100560.50;144992;601;6012;-84
2021/05/20 07:45:27;;;;;;;4.87;1.10;;;;;;;24.87;36.62;100566.44;144992;569;6004;-78
2021/05/20 07:47:54;;;;;;;5.85;1.20;;;;;;;24.82;35.58;100566.59;144992;619;6004;-83
2021/05/20 07:50:21;;;;;;;2.35;0.90;;;;;;;24.84;35.43;100564.75;144992;585;6004;-85
2021/05/20 07:52:51;;;;;;;10.00;1.55;;;;;;;24.81;36.30;100570.16;144992;618;6004;-82
2021/05/20 07:55:25;;;;;;;4.82;1.00;;;;;;;24.70;36.21;100567.81;144992;576;6004;-85
2021/05/20 07:57:56;;;;;;;5.07;1.23;;;;;;;24.68;36.63;100563.50;144992;579;6004;-80
2021/05/20 08:00:36;;;;;;;3.28;0.93;;;;;;;24.72;36.84;100567.78;144992;648;6004;-81
2021/05/20 08:03:36;;;;;;;3.70;1.55;;;;;;;25.04;36.79;100566.75;144992;656;6004;-81
2021/05/20 08:06:25;;;;;;;2.60;1.25;;;;;;;25.24;35.18;100576.72;144992;568;6004;-82
2021/05/20 08:09:21;;;;;;;4.05;1.50;;;;;;;25.43;35.95;100573.47;144992;681;6004;-81
2021/05/20 08:12:10;;;;;;;2.22;0.80;;;;;;;25.28;35.99;100564.25;144992;613;6002;-79
2021/05/20 08:14:50;;;;;;;2.83;1.20;;;;;;;25.37;35.39;100571.88;144992;570;6002;-81
2021/05/20 08:17:35;;;;;;;;;;;;;;;;;;;;;
2021/05/20 08:20:17;;;;;;;5.97;1.90;;;;;;;25.44;35.25;100583.19;144992;595;6004;-79
2021/05/20 08:22:55;;;;;;;7.10;1.50;;;;;;;25.23;35.59;100588.28;144992;649;6004;-81
2021/05/20 08:25:41;;;;;;;4.72;1.20;;;;;;;24.97;35.17;100570.53;144991;582;6000;-81
2021/05/20 08:28:14;;;;;;;3.95;1.10;;;;;;;24.69;35.37;100560.81;144993;626;6002;-87
2021/05/20 08:30:45;;;;;;;3.28;1.00;;;;;;;24.94;33.18;100562.66;144993;591;6002;-83
2021/05/20 08:33:15;;;;;;;2.20;1.00;;;;;;;25.06;34.57;100558.75;144993;575;6002;-83
2021/05/20 08:35:48;;;;;;;5.50;2.60;;;;;;;25.34;33.57;100564.91;144993;576;6002;-80
2021/05/20 08:38:23;;;;;;;3.55;1.50;;;;;;;25.48;33.32;100567.06;144993;615;6002;-82
2021/05/20 08:41:03;;;;;;;3.97;1.30;;;;;;;25.35;34.16;100553.34;144993;618;6002;-83
2021/05/20 08:43:39;;;;;;;1.65;0.70;;;;;;;25.55;33.12;100562.44;144993;594;6002;-82
2021/05/20 08:46:18;;;;;;;5.75;1.80;;;;;;;25.79;33.84;100551.84;144993;591;6002;-82
2021/05/20 08:49:14;;;;;;;4.05;1.70;;;;;;;25.78;33.17;100563.38;144993;576;6002;-79
2021/05/20 08:52:09;;;;;;;6.65;3.10;;;;;;;26.18;34.51;100556.63;144993;588;6002;-83
2021/05/20 08:54:42;;;;;;;9.57;2.85;;;;;;;26.45;34.42;100568.00;144992;579;6002;-83
2021/05/20 08:57:18;;;;;;;5.25;2.00;;;;;;;26.69;32.65;100566.19;144993;600;6002;-83
2021/05/20 09:00:31;;;;;;;;;;;;;;;;;;;;;
2021/05/20 09:03:15;;;;;;;11.93;4.47;;;;;;;26.74;33.11;100566.03;144992;623;6000;-82
2021/05/20 09:05:50;;;;;;;25.27;15.37;;;;;;;26.68;31.98;100575.13;144992;568;6000;-80
2021/05/20 09:08:54;;;;;;;5.50;1.20;;;;;;;26.46;31.66;100572.41;144992;567;6000;-83
2021/05/20 09:11:32;;;;;;;6.80;1.30;;;;;;;26.53;31.64;100565.91;144992;669;6000;-84
2021/05/20 09:14:05;;;;;;;9.90;3.33;;;;;;;26.61;31.96;100568.28;144993;593;6000;-78
2021/05/20 09:16:36;;;;;;;5.75;2.80;;;;;;;26.64;31.51;100567.28;144993;593;6002;-77
2021/05/20 09:19:27;;;;;;;4.45;1.42;;;;;;;26.91;32.25;100570.69;144993;671;6002;-79
2021/05/20 09:22:13;;;;;;;5.85;2.60;;;;;;;27.02;31.75;100573.75;144993;578;6002;-80
2021/05/20 09:25:06;;;;;;;4.62;1.42;;;;;;;27.02;29.73;100551.59;144993;663;6002;-84
2021/05/20 09:27:48;;;;;;;5.75;1.98;;;;;;;27.15;29.20;100552.81;144993;585;6000;-92
2021/05/20 09:30:25;;;;;;;4.62;1.33;;;;;;;27.22;30.66;100569.41;144993;565;6002;-78
2021/05/20 09:32:59;;;;;;;5.90;2.35;;;;;;;27.16;30.75;100562.53;144993;591;6002;-79
2021/05/20 09:35:31;;;;;;;3.08;1.52;;;;;;;27.06;33.04;100564.72;144993;680;6002;-83
2021/05/20 09:38:04;;;;;;;4.82;1.12;;;;;;;26.48;33.96;100565.22;144993;600;6002;-78
2021/05/20 09:40:46;;;;;;;4.25;1.52;;;;;;;26.77;33.92;100564.12;144993;909;6002;-78
2021/05/20 09:43:18;;;;;;;2.95;1.05;;;;;;;26.89;33.60;100551.25;144993;564;6002;-78
2021/05/20 09:45:51;;;;;;;3.58;1.00;;;;;;;26.54;32.53;100545.50;144993;591;6002;-77
2021/05/20 09:48:35;;;;;;;3.20;1.25;;;;;;;26.52;33.54;100550.00;144993;572;6002;-77
2021/05/20 09:51:09;;;;;;;5.57;2.00;;;;;;;26.46;33.79;100539.63;144993;584;6002;-77
2021/05/20 09:53:58;;;;;;;5.62;1.40;;;;;;;26.70;33.15;100538.66;144993;652;6002;-78
2021/05/20 09:56:38;;;;;;;6.43;1.30;;;;;;;26.32;30.12;100543.66;144992;638;6002;-73
2021/05/20 09:59:13;;;;;;;5.07;1.50;;;;;;;26.22;32.44;100550.28;144993;909;6002;-73
2021/05/20 10:01:42;;;;;;;4.82;1.42;;;;;;;26.33;33.37;100541.91;144993;567;6002;-82
2021/05/20 10:04:10;;;;;;;4.68;0.95;;;;;;;26.45;32.45;100538.72;144993;578;6002;-72
2021/05/20 10:06:42;;;;;;;3.67;1.30;;;;;;;26.38;33.04;100534.59;144994;668;5002;-73
2021/05/20 10:09:13;;;;;;;4.22;1.25;;;;;;;26.16;34.13;100535.41;144994;573;5002;-73
2021/05/20 10:11:41;;;;;;;4.78;1.37;;;;;;;26.12;33.82;100533.81;144994;589;5002;-72
2021/05/20 10:14:09;;;;;;;6.25;1.42;;;;;;;26.21;33.65;100537.88;144994;602;5002;-71
2021/05/20 10:16:40;;;;;;;4.80;1.37;;;;;;;26.36;33.18;100542.63;144994;586;5002;-72
2021/05/20 10:19:08;;;;;;;3.72;2.00;;;;;;;26.53;33.84;100544.63;144994;564;5003;-72
2021/05/20 10:21:35;;;;;;;4.18;2.45;;;;;;;26.60;34.59;100535.47;144994;591;5002;-72
2021/05/20 10:24:05;;;;;;;9.02;2.47;;;;;;;26.76;33.28;100538.41;144994;678;5002;-74
2021/05/20 10:26:38;;;;;;;4.28;1.40;;;;;;;26.79;33.49;100534.78;144994;619;5002;-73
2021/05/20 10:29:05;;;;;;;3.35;1.52;;;;;;;26.46;33.84;100540.47;144994;909;5002;-74
2021/05/20 10:31:31;;;;;;;6.40;1.12;;;;;;;26.51;32.65;100519.00;144994;705;5002;-75
2021/05/20 10:34:04;;;;;;;5.90;1.87;;;;;;;26.56;32.89;100519.69;144994;592;5002;-74
2021/05/20 10:36:33;;;;;;;6.32;1.80;;;;;;;26.62;33.35;100511.44;144994;621;5002;-72
2021/05/20 10:39:20;;;;;;;6.07;1.80;;;;;;;26.60;33.12;100514.19;144994;813;5002;-71
2021/05/20 10:41:46;;;;;;;3.50;1.10;;;;;;;26.61;33.05;100517.69;144994;589;5002;-74
2021/05/20 10:44:14;;;;;;;5.72;1.23;;;;;;;26.66;33.36;100518.44;144994;910;5002;-74
2021/05/20 10:47:03;;;;;;;4.82;1.40;;;;;;;26.71;32.29;100513.78;144994;563;5002;-75
2021/05/20 10:50:07;;;;;;;4.97;2.22;;;;;;;26.80;33.19;100509.84;144994;586;5002;-73
2021/05/20 10:52:42;;;;;;;5.35;1.95;;;;;;;26.68;32.65;100508.56;144994;601;5004;-72
2021/05/20 10:55:11;;;;;;;;;;;;;;;26.61;32.72;100505.28;144998;907;5004;-73
2021/05/20 10:58:06;;;;;;;5.60;1.50;;;;;;;26.67;31.91;100498.84;144998;596;5000;-74
2021/05/20 11:00:38;;;;;;;4.85;1.37;;;;;;;26.58;32.42;100493.84;144994;630;5002;-73
2021/05/20 11:03:06;;;;;;;3.70;1.10;;;;;;;26.65;31.45;100490.06;144994;599;5002;-77
2021/05/20 11:06:01;;;;;;;7.22;1.40;;;;;;;26.66;31.48;100480.28;144994;740;5002;-77
2021/05/20 11:08:46;;;;;;;;;;;;;;;26.79;30.63;100486.84;144998;906;5004;-76
2021/05/20 11:11:50;;;;;;;;;;;;;;;26.97;30.64;100480.72;145002;926;1021;-76
2021/05/20 11:14:37;;;;;;;9.98;1.75;;;;;;;27.22;31.34;100486.78;144998;605;5000;-78
2021/05/20 11:17:33;;;;;;;4.47;1.70;;;;;;;27.23;30.12;100480.53;144994;579;5002;-75
2021/05/20 11:20:28;;;;;;;3.50;0.90;;;;;;;27.18;29.14;100487.87;144994;620;5004;-74
2021/05/20 11:23:23;;;;;;;4.43;1.25;;;;;;;27.10;30.12;100491.72;144994;570;5002;-74
2021/05/20 11:26:04;;;;;;;5.57;1.20;;;;;;;27.13;30.12;100491.59;144994;615;5004;-74
2021/05/20 11:28:45;;;;;;;6.75;1.75;;;;;;;27.10;30.22;100483.72;144994;581;5004;-71
2021/05/20 11:31:12;;;;;;;4.60;1.70;;;;;;;27.04;30.08;100476.00;144994;667;5004;-71
2021/05/20 11:33:58;;;;;;;6.50;1.92;;;;;;;27.03;30.68;100478.72;144993;651;5004;-73
2021/05/20 11:36:42;;;;;;;4.22;1.10;;;;;;;26.96;30.72;100478.13;144994;605;5002;-70
2021/05/20 11:39:12;;;;;;;5.73;1.63;;;;;;;27.10;30.39;100475.75;144994;638;5002;-71
2021/05/20 11:41:40;;;;;;;5.40;1.67;;;;;;;27.24;29.45;100475.16;144994;586;5002;-72
2021/05/20 11:44:11;;;;;;;12.10;2.20;;;;;;;27.35;29.35;100469.38;144994;587;5002;-72
2021/05/20 11:46:43;;;;;;;4.87;1.30;;;;;;;27.38;28.73;100477.25;144994;560;5002;-71
2021/05/20 11:49:23;;;;;;;3.40;1.20;;;;;;;27.33;29.01;100481.94;144994;583;5002;-74
2021/05/20 11:51:59;;;;;;;3.10;1.02;;;;;;;27.27;26.62;100468.84;144994;792;5002;-72
2021/05/20 11:54:31;;;;;;;2.50;1.42;;;;;;;27.18;26.08;100461.25;144994;564;5002;-72
2021/05/20 11:56:59;;;;;;;3.15;1.42;;;;;;;27.25;28.24;100446.69;144994;910;5002;-71
2021/05/20 11:59:56;;;;;;;1.92;0.98;;;;;;;27.32;28.62;100464.19;144994;599;5002;-73
2021/05/20 12:02:31;;;;;;;1.95;1.00;;;;;;;27.23;27.40;100464.56;144993;672;5004;-72